Lobbes, Belgium
Current Conditions -  °F | °C
As of 5:50 PM on Friday 28 Nov 2014 (Local Time) from EBCI Reporting Station
Clear Clear  
Wind Chill: 52°   Ceiling: Unl
Heat Index: 52°   Visibility: 6mi
Dew Point: 43°   Wind: 8mph
Humidity: 71%   Direction: 60°ENE
Pressure: 29.71"   Gusts: NA
Location:  50.35°N, 4.27°E
Report Text: EBCI 281650Z 06007KT CAVOK 11/06 Q1006 NOSIG
Loading
Personal Weather Stations






























Interactive Weather Map New forecast layout! Learn more

10-Day Weather Forecast

Advertisements
Track Severe Weather on mobile